Mount Shasta, CA

10:41 AM PDT on October 23, 2014 (GMT -0700)
RAWS MT. SHASTA CA US | Change Station
CLOSE
Current Station
Personal Weather Station
Location: Mount Shasta, CA
Elevation: 3573 ft
Nearby Weather Stations

Elev 3573 ft 41.32 °N, 122.32 °W | Updated 47 minutes ago

Rain
Rain
48 °F
Feels Like 44 °F
N
8
Wind Variable Wind from ESE
Gusts 14.0 mph

Today
High -- | Low -- °F
--% Chance of Precip.
Yesterday
High -- | Low -- °F
Precip. -- in
7:30 AM 6:16 PM
Waning Crescent, 0% visible
Pressure 30.07 in
Visibility 6.0 miles
Clouds Mostly Cloudy 2500 ft
Mostly Cloudy 3100 ft
Overcast 5500 ft
Windchill 44 °F
Dew Point 46 °F
Humidity 92%
Rainfall 0.43 in
Snow Depth Not available.
UV 1 out of 12
Pollen .50 out of 12
Air Quality Not available.
Flu Activity Sporadic
SPECI KMHS 231732Z AUTO 00000KT 6SM -RA BR BKN025 BKN031 OVC055 09/08 A3007 RMK AO2 P0002 T00940078

More Conditions Fewer Conditions

Pressure 30.07 in
Visibility 6.0 miles
Clouds Mostly Cloudy 2500 ft
Mostly Cloudy 3100 ft
Overcast 5500 ft
Windchill 44 °F
Dew Point 46 °F
Humidity 92%
Rainfall 0.43 in
Snow Depth Not available.
UV 1 out of 12
Pollen .50 out of 12
Air Quality Not available.
Flu Activity Sporadic
SPECI KMHS 231732Z AUTO 00000KT 6SM -RA BR BKN025 BKN031 OVC055 09/08 A3007 RMK AO2 P0002 T00940078

More Conditions Fewer Conditions

10-Day Weather Forecast

Almanac

Astronomy

Oct. 23, 2014 Rise Set
Actual Time 7:30 AM PDT 6:16 PM PDT
Civil Twilight 7:02 AM PDT 6:44 PM PDT
Nautical Twilight 6:29 AM PDT 7:16 PM PDT
Astronomical Twilight 5:57 AM PDT 7:48 PM PDT
Moon 7:15 AM PDT 6:21 PM PDT
Length of Visible Light 11h 42m
Length of Day
10h 45m
Tomorrow will be 2m 35s shorter.
Waning Crescent, 0% of the Moon is Illuminated
Today
Waning Crescent
Oct 23
New
Oct 30
First Quarter
Nov 6
Full
Nov 14
Last Quarter

Today's Extremes

State Highs State Lows

Community

WunderPhotos

Upload Photos

1,764,322 photos uploaded!

WunderBlogs® & News

Nearby

Snow Depth

Station Depth Elevation
Adin Mountain 0 in 6200 ft
Crowder Flat 0 in 5100 ft
Independence Creek 0 in 6500 ft
Independence Camp 0 in 7000 ft
CSS Lab 1 in 6900 ft

Earthquake Activity

City Distance Mag. Time & Date
No recent earthquake activity has been reported nearby.
Minimum magnitude displayed is 2.5.

Coastal Water Temperatures

Place Temperature
No Stations Reporting

Nearby Weather Stations